Fantasy — H3GS — position and weather

sailwx.info

Track history (hours):
 
Tides and Currents Weather Stations Pressure Air Temp Water Temp Dewpoint Dewpoint Depression Visibility Wind Speed Wind Dir Waves Ship Positions

Fantasy

Operator: Carnival Cruise Lines

Last reported at 2016-Aug-25 03:34 UTC. Time now 2016-Aug-25 06:18 UTC.
Position N 20°38' W 086°55'.

Type: Ship. MMSI: 353486000.

Date/timePositionNaut miles runAvg speedWind from/ knotsBaromVisibWave heightAir tempDewpointWater temp
2016-Aug-25 03:34N 20°38' W 086°55'10 9.6
2016-Aug-25 02:34N 20°29' W 086°59'0 0.0
2016-Aug-25 01:33N 20°29' W 086°59'0 0.0
2016-Aug-25 00:33N 20°29' W 086°59'0 0.0
2016-Aug-24 23:26N 20°29' W 086°59'0 0.0
2016-Aug-24 22:32N 20°29' W 086°59'0 0.0
2016-Aug-24 21:31N 20°29' W 086°59'0 0.0
2016-Aug-24 20:31N 20°29' W 086°59'0 0.0
2016-Aug-24 19:34N 20°29' W 086°59'0 0.0
2016-Aug-24 18:33N 20°29' W 086°59'0 0.0
2016-Aug-24 17:33N 20°29' W 086°59'0 0.0
2016-Aug-24 16:32N 20°29' W 086°59'7 7.1
2016-Aug-24 15:34N 20°35' W 086°57'16216.9
2016-Aug-24 06:00N 22°24' W 084°48'24610.3 060 / 161018.0 5.4 1.028.026.630.0
2016-Aug-23 06:00N 24°24' W 080°54'8012.0 060 / 81018.0 5.4 29.026.230.0
2016-Aug-22 23:17N 25°24' W 079°55'911.9
2016-Aug-22 22:33N 25°32' W 079°54'1111.2
2016-Aug-22 21:33N 25°42' W 079°60'1010.2
2016-Aug-22 20:33N 25°47' W 080°10'0 0.2
2016-Aug-22 19:32N 25°47' W 080°10'0 0.0
2016-Aug-22 18:32N 25°47' W 080°10'0 0.0
2016-Aug-22 17:32N 25°47' W 080°10'0 0.0
2016-Aug-22 16:31N 25°47' W 080°10'0 0.0
2016-Aug-22 15:28N 25°47' W 080°10'0 0.0
2016-Aug-22 14:33N 25°47' W 080°10'0 0.0
2016-Aug-22 13:33N 25°47' W 080°10'0 0.0
2016-Aug-22 12:32N 25°47' W 080°10'0 0.0
2016-Aug-22 11:32N 25°47' W 080°10'1 1.2
2016-Aug-22 10:33N 25°46' W 080°09'1211.6
2016-Aug-22 09:33N 25°50' W 079°57'1212.2
2016-Aug-22 08:33N 25°57' W 079°45'1110.5
2016-Aug-22 07:33N 26°01' W 079°35'1017.8
2016-Aug-22 07:00N 26°00' W 079°24'812.4 150 / 51017.0 5.4 28.025.230.0
2016-Aug-22 06:23N 26°08' W 079°24'92 7.5
2016-Aug-21 18:00N 25°54' W 077°42'40 1.1 31.0
2016-Aug-20 06:00N 26°06' W 078°24'5113.7 140 / 5 5.4 27.025.630.0
2016-Aug-20 02:17N 26°10' W 079°20'6 8.6
2016-Aug-20 01:33N 26°06' W 079°26'9 8.9
2016-Aug-20 00:33N 26°02' W 079°35'9 8.6
2016-Aug-19 23:33N 25°58' W 079°44'1211.5
2016-Aug-19 22:33N 25°51' W 079°54'1211.8
2016-Aug-19 21:33N 25°46' W 080°05'4 4.3
2016-Aug-19 20:32N 25°47' W 080°10'0 0.0
2016-Aug-19 19:33N 25°47' W 080°10'0 0.0
2016-Aug-19 18:33N 25°47' W 080°10'0 0.0
2016-Aug-19 17:33N 25°47' W 080°10'0 0.0
2016-Aug-19 16:32N 25°47' W 080°10'0 0.0
2016-Aug-19 15:32N 25°47' W 080°10'0 0.0
2016-Aug-19 14:31N 25°47' W 080°10'0 0.0
2016-Aug-19 13:31N 25°47' W 080°10'0 0.0
2016-Aug-19 12:33N 25°47' W 080°10'0 0.3
2016-Aug-19 11:33N 25°47' W 080°10'9 8.7
2016-Aug-19 10:33N 25°48' W 080°00'9 9.2
2016-Aug-19 09:33N 25°53' W 079°52'1010.0
2016-Aug-19 08:33N 25°58' W 079°42'9 9.1
2016-Aug-19 07:33N 26°03' W 079°33'6843.3
2016-Aug-19 06:00N 26°06' W 078°18'112 4.9 090 / 3 28.025.230.0
2016-Aug-18 07:00N 25°36' W 076°18'16 0.7 110 / 10 5.4 26.024.630.0
2016-Aug-17 07:00N 25°24' W 076°06'136 5.5 110 / 141019.0 5.4 1.028.025.230.0
2016-Aug-16 06:00N 26°06' W 078°30'4217.2 100 / 181019.010.8 26.023.130.0
2016-Aug-16 03:33N 26°12' W 079°16'1717.5
2016-Aug-16 02:33N 26°04' W 079°34'1818.4
2016-Aug-16 01:33N 25°54' W 079°51'1515.1
2016-Aug-16 00:33N 25°46' W 080°05'5 0.3
2016-Aug-15 10:25N 25°47' W 080°10'2 1.8
2016-Aug-15 09:32N 25°46' W 080°09'9 9.5
2016-Aug-15 08:33N 25°49' W 079°59'11 8.7
2016-Aug-15 07:15N 25°55' W 079°48'6 8.3
2016-Aug-15 06:33N 25°58' W 079°42'610.8
2016-Aug-15 06:00N 26°00' W 079°36'14 8.7 120 / 151019.0 5.4 1.029.026.230.0
2016-Aug-15 04:21N 26°08' W 079°23'  
Track history (hours):
 
Tides and Currents Weather Stations Pressure Air Temp Water Temp Dewpoint Dewpoint Depression Visibility Wind Speed Wind Dir Waves Ship Positions

Fantasy

Operator: Carnival Cruise Lines

Last reported at 2016-Aug-25 03:34 UTC. Time now 2016-Aug-25 06:18 UTC.
Position N 20°38' W 086°55'.

Type: Ship. MMSI: 353486000.

Date/timePositionNaut miles runAvg speedWind from/ knotsBaromVisibWave heightAir tempDewpointWater temp
2016-Aug-25 03:34N 20°38' W 086°55'10 9.6
2016-Aug-25 02:34N 20°29' W 086°59'0 0.0
2016-Aug-25 01:33N 20°29' W 086°59'0 0.0
2016-Aug-25 00:33N 20°29' W 086°59'0 0.0
2016-Aug-24 23:26N 20°29' W 086°59'0 0.0
2016-Aug-24 22:32N 20°29' W 086°59'0 0.0
2016-Aug-24 21:31N 20°29' W 086°59'0 0.0
2016-Aug-24 20:31N 20°29' W 086°59'0 0.0
2016-Aug-24 19:34N 20°29' W 086°59'0 0.0
2016-Aug-24 18:33N 20°29' W 086°59'0 0.0
2016-Aug-24 17:33N 20°29' W 086°59'0 0.0
2016-Aug-24 16:32N 20°29' W 086°59'7 7.1
2016-Aug-24 15:34N 20°35' W 086°57'16216.9
2016-Aug-24 06:00N 22°24' W 084°48'24610.3 060 / 161018.0 5.4 1.028.026.630.0
2016-Aug-23 06:00N 24°24' W 080°54'8012.0 060 / 81018.0 5.4 29.026.230.0
2016-Aug-22 23:17N 25°24' W 079°55'911.9
2016-Aug-22 22:33N 25°32' W 079°54'1111.2
2016-Aug-22 21:33N 25°42' W 079°60'1010.2
2016-Aug-22 20:33N 25°47' W 080°10'0 0.2
2016-Aug-22 19:32N 25°47' W 080°10'0 0.0
2016-Aug-22 18:32N 25°47' W 080°10'0 0.0
2016-Aug-22 17:32N 25°47' W 080°10'0 0.0
2016-Aug-22 16:31N 25°47' W 080°10'0 0.0
2016-Aug-22 15:28N 25°47' W 080°10'0 0.0
2016-Aug-22 14:33N 25°47' W 080°10'0 0.0
2016-Aug-22 13:33N 25°47' W 080°10'0 0.0
2016-Aug-22 12:32N 25°47' W 080°10'0 0.0
2016-Aug-22 11:32N 25°47' W 080°10'1 1.2
2016-Aug-22 10:33N 25°46' W 080°09'1211.6
2016-Aug-22 09:33N 25°50' W 079°57'1212.2
2016-Aug-22 08:33N 25°57' W 079°45'1110.5
2016-Aug-22 07:33N 26°01' W 079°35'1017.8
2016-Aug-22 07:00N 26°00' W 079°24'812.4 150 / 51017.0 5.4 28.025.230.0
2016-Aug-22 06:23N 26°08' W 079°24'92 7.5
2016-Aug-21 18:00N 25°54' W 077°42'40 1.1 31.0
2016-Aug-20 06:00N 26°06' W 078°24'5113.7 140 / 5 5.4 27.025.630.0
2016-Aug-20 02:17N 26°10' W 079°20'6 8.6
2016-Aug-20 01:33N 26°06' W 079°26'9 8.9
2016-Aug-20 00:33N 26°02' W 079°35'9 8.6
2016-Aug-19 23:33N 25°58' W 079°44'1211.5
2016-Aug-19 22:33N 25°51' W 079°54'1211.8
2016-Aug-19 21:33N 25°46' W 080°05'4 4.3
2016-Aug-19 20:32N 25°47' W 080°10'0 0.0
2016-Aug-19 19:33N 25°47' W 080°10'0 0.0
2016-Aug-19 18:33N 25°47' W 080°10'0 0.0
2016-Aug-19 17:33N 25°47' W 080°10'0 0.0
2016-Aug-19 16:32N 25°47' W 080°10'0 0.0
2016-Aug-19 15:32N 25°47' W 080°10'0 0.0
2016-Aug-19 14:31N 25°47' W 080°10'0 0.0
2016-Aug-19 13:31N 25°47' W 080°10'0 0.0
2016-Aug-19 12:33N 25°47' W 080°10'0 0.3
2016-Aug-19 11:33N 25°47' W 080°10'9 8.7
2016-Aug-19 10:33N 25°48' W 080°00'9 9.2
2016-Aug-19 09:33N 25°53' W 079°52'1010.0
2016-Aug-19 08:33N 25°58' W 079°42'9 9.1
2016-Aug-19 07:33N 26°03' W 079°33'6843.3
2016-Aug-19 06:00N 26°06' W 078°18'112 4.9 090 / 3 28.025.230.0
2016-Aug-18 07:00N 25°36' W 076°18'16 0.7 110 / 10 5.4 26.024.630.0
2016-Aug-17 07:00N 25°24' W 076°06'136 5.5 110 / 141019.0 5.4 1.028.025.230.0
2016-Aug-16 06:00N 26°06' W 078°30'4217.2 100 / 181019.010.8 26.023.130.0
2016-Aug-16 03:33N 26°12' W 079°16'1717.5
2016-Aug-16 02:33N 26°04' W 079°34'1818.4
2016-Aug-16 01:33N 25°54' W 079°51'1515.1
2016-Aug-16 00:33N 25°46' W 080°05'5 0.3
2016-Aug-15 10:25N 25°47' W 080°10'2 1.8
2016-Aug-15 09:32N 25°46' W 080°09'9 9.5
2016-Aug-15 08:33N 25°49' W 079°59'11 8.7
2016-Aug-15 07:15N 25°55' W 079°48'6 8.3
2016-Aug-15 06:33N 25°58' W 079°42'610.8
2016-Aug-15 06:00N 26°00' W 079°36'14 8.7 120 / 151019.0 5.4 1.029.026.230.0
2016-Aug-15 04:21N 26°08' W 079°23'  

Dump ship's entire track history